Decoded Metar for SABE (BUENOS AIRES in ARGENTINA) (IATA:AEP) | Meteo·Mobile Aviation Weather
aviador You're here:

SABE Decoded Metar

BUENOS AIRES in ARGENTINA
Report Time2018-10-18 16:00:00
UTC Time2018-10-18 16:49:27
Flight Rules vfr VFR
Wind090° at 11 kt
W.Decomp.*RWY 13: 9.2 kt HW 6 kt LCW
W.Rank090° ranks 2
Current wind is above 090° avg. (7.3)
Visibility9999 m
Phenomena:N/A
Clouds:N/A
Expected CloudBase > 1,200 ft AGL from Temp-Dew spread
CeilingNone
Temp20°C (ISA +5)
Dew Point17°C (83% RH)
AAT18.4°C
QNH1018 hPa
Density Alt699 ft
Elevation20 ft
Report Wrong Elevation
Raw Report
SABE 181600Z 09011KT CAVOK 20/17 Q1018 NOSIG=

Extra information for SABE:More info

Metar Taf Metar & Taf Last 4 Metars F.Rules Stats Wind Profile Meteogram Temp Stats Airport Information Weather charts Add Link Nearby VenuesMetar ALERT Operation Metar Decoded Social comments